sensor_id;sensor_type;location;lat;lon;timestamp;pressure;altitude;pressure_sealevel;temperature;humidity
34658;BME280;20865;43.312;27.152;2022-09-12T04:45:43;99878.05;;;25.91;43.65
34658;BME280;20865;43.312;27.152;2022-09-12T04:48:11;99876.10;;;26.01;43.40
34658;BME280;20865;43.312;27.152;2022-09-12T04:50:39;99872.81;;;25.98;43.59
34658;BME280;20865;43.312;27.152;2022-09-12T04:53:07;99874.84;;;25.96;43.49
34658;BME280;20865;43.312;27.152;2022-09-12T04:55:34;99888.21;;;25.99;43.65
34658;BME280;20865;43.312;27.152;2022-09-12T04:58:02;99885.81;;;26.00;43.49
34658;BME280;20865;43.312;27.152;2022-09-12T05:00:29;99892.14;;;26.00;43.33
34658;BME280;20865;43.312;27.152;2022-09-12T05:02:57;99899.53;;;26.04;43.37
34658;BME280;20865;43.312;27.152;2022-09-12T05:05:24;99891.60;;;26.14;43.25
34658;BME280;20865;43.312;27.152;2022-09-12T05:07:52;99891.11;;;26.33;43.10
34658;BME280;20865;43.312;27.152;2022-09-12T05:10:19;99891.44;;;26.48;42.86
34658;BME280;20865;43.312;27.152;2022-09-12T05:12:49;99887.30;;;26.66;42.75
34658;BME280;20865;43.312;27.152;2022-09-12T05:15:16;99895.56;;;26.74;42.36
34658;BME280;20865;43.312;27.152;2022-09-12T05:17:44;99894.00;;;26.93;42.35
34658;BME280;20865;43.312;27.152;2022-09-12T05:20:12;99895.97;;;27.09;41.89
34658;BME280;20865;43.312;27.152;2022-09-12T05:22:39;99891.02;;;27.35;41.87
34658;BME280;20865;43.312;27.152;2022-09-12T05:25:08;99895.37;;;27.53;41.12
34658;BME280;20865;43.312;27.152;2022-09-12T05:27:36;99890.11;;;27.68;40.79
34658;BME280;20865;43.312;27.152;2022-09-12T05:30:04;99891.58;;;27.89;40.63
34658;BME280;20865;43.312;27.152;2022-09-12T05:32:32;99892.81;;;28.07;39.81
34658;BME280;20865;43.312;27.152;2022-09-12T05:34:59;99894.08;;;28.24;39.16
34658;BME280;20865;43.312;27.152;2022-09-12T05:37:27;99902.64;;;28.21;38.44
34658;BME280;20865;43.312;27.152;2022-09-12T05:39:54;99901.98;;;28.32;38.48
34658;BME280;20865;43.312;27.152;2022-09-12T05:42:24;99898.41;;;28.39;38.37
34658;BME280;20865;43.312;27.152;2022-09-12T05:44:51;99909.72;;;28.48;38.08
34658;BME280;20865;43.312;27.152;2022-09-12T05:47:19;99912.30;;;28.58;38.19
34658;BME280;20865;43.312;27.152;2022-09-12T05:49:47;99904.08;;;28.70;38.22
34658;BME280;20865;43.312;27.152;2022-09-12T05:52:16;99913.31;;;28.90;37.48
34658;BME280;20865;43.312;27.152;2022-09-12T05:54:44;99908.68;;;29.07;37.21
34658;BME280;20865;43.312;27.152;2022-09-12T05:57:12;99912.44;;;29.14;37.18
34658;BME280;20865;43.312;27.152;2022-09-12T05:59:40;99906.58;;;29.21;36.99
34658;BME280;20865;43.312;27.152;2022-09-12T06:02:09;99907.09;;;29.25;36.02
34658;BME280;20865;43.312;27.152;2022-09-12T06:04:39;99909.47;;;29.32;35.98
34658;BME280;20865;43.312;27.152;2022-09-12T06:07:06;99914.58;;;29.51;36.22
34658;BME280;20865;43.312;27.152;2022-09-12T06:09:34;99910.23;;;29.69;36.17
34658;BME280;20865;43.312;27.152;2022-09-12T06:12:02;99914.31;;;29.81;35.94
34658;BME280;20865;43.312;27.152;2022-09-12T06:14:30;99911.67;;;29.92;36.00
34658;BME280;20865;43.312;27.152;2022-09-12T06:16:58;99906.80;;;29.98;35.76
34658;BME280;20865;43.312;27.152;2022-09-12T06:19:25;99916.93;;;30.06;35.39
34658;BME280;20865;43.312;27.152;2022-09-12T06:21:53;99918.44;;;30.08;35.07
34658;BME280;20865;43.312;27.152;2022-09-12T06:24:22;99921.00;;;30.18;34.64
34658;BME280;20865;43.312;27.152;2022-09-12T06:26:49;99924.94;;;30.24;34.65
34658;BME280;20865;43.312;27.152;2022-09-12T06:29:20;99925.06;;;30.30;34.56
34658;BME280;20865;43.312;27.152;2022-09-12T06:31:48;99928.08;;;30.40;34.87
34658;BME280;20865;43.312;27.152;2022-09-12T06:34:15;99926.45;;;30.26;34.26
34658;BME280;20865;43.312;27.152;2022-09-12T06:36:45;99925.75;;;30.28;35.04
34658;BME280;20865;43.312;27.152;2022-09-12T06:39:15;99926.77;;;30.31;34.92
34658;BME280;20865;43.312;27.152;2022-09-12T06:41:44;99922.27;;;30.34;34.27
34658;BME280;20865;43.312;27.152;2022-09-12T06:44:14;99926.93;;;30.34;34.20
34658;BME280;20865;43.312;27.152;2022-09-12T06:46:42;99924.92;;;30.47;34.40
34658;BME280;20865;43.312;27.152;2022-09-12T06:49:11;99924.92;;;30.47;33.78
34658;BME280;20865;43.312;27.152;2022-09-12T06:51:39;99923.67;;;30.53;33.57
34658;BME280;20865;43.312;27.152;2022-09-12T06:54:14;99912.61;;;30.57;33.76
34658;BME280;20865;43.312;27.152;2022-09-12T06:56:43;99911.88;;;30.64;33.98
34658;BME280;20865;43.312;27.152;2022-09-12T06:59:11;99917.75;;;30.60;33.83
34658;BME280;20865;43.312;27.152;2022-09-12T07:01:40;99920.89;;;30.80;33.03
34658;BME280;20865;43.312;27.152;2022-09-12T07:04:08;99911.16;;;30.89;32.87
34658;BME280;20865;43.312;27.152;2022-09-12T07:06:39;99915.93;;;30.95;33.07
34658;BME280;20865;43.312;27.152;2022-09-12T07:09:10;99911.58;;;31.00;32.70
34658;BME280;20865;43.312;27.152;2022-09-12T07:11:39;99910.91;;;31.13;32.89
34658;BME280;20865;43.312;27.152;2022-09-12T07:14:08;99912.81;;;31.27;33.52
34658;BME280;20865;43.312;27.152;2022-09-12T07:16:36;99911.02;;;31.39;33.19
34658;BME280;20865;43.312;27.152;2022-09-12T07:19:05;99912.54;;;31.56;33.18
34658;BME280;20865;43.312;27.152;2022-09-12T07:21:34;99919.33;;;31.64;32.63
34658;BME280;20865;43.312;27.152;2022-09-12T07:24:04;99919.38;;;31.60;32.20
34658;BME280;20865;43.312;27.152;2022-09-12T07:26:31;99912.66;;;31.73;31.71
34658;BME280;20865;43.312;27.152;2022-09-12T07:28:59;99918.56;;;31.70;32.57
34658;BME280;20865;43.312;27.152;2022-09-12T07:31:27;99919.88;;;31.89;32.21
34658;BME280;20865;43.312;27.152;2022-09-12T07:33:55;99914.83;;;31.93;31.87
34658;BME280;20865;43.312;27.152;2022-09-12T07:36:24;99914.69;;;31.90;31.85
34658;BME280;20865;43.312;27.152;2022-09-12T07:38:55;99918.75;;;32.09;31.36
34658;BME280;20865;43.312;27.152;2022-09-12T07:41:26;99915.86;;;32.17;31.19
34658;BME280;20865;43.312;27.152;2022-09-12T07:43:56;99914.77;;;32.22;31.58
34658;BME280;20865;43.312;27.152;2022-09-12T07:46:25;99915.69;;;32.30;31.01
34658;BME280;20865;43.312;27.152;2022-09-12T07:48:58;99905.27;;;32.32;32.50
34658;BME280;20865;43.312;27.152;2022-09-12T07:51:27;99913.20;;;32.45;30.73
34658;BME280;20865;43.312;27.152;2022-09-12T07:53:55;99907.28;;;32.59;31.11
34658;BME280;20865;43.312;27.152;2022-09-12T07:56:23;99909.50;;;32.70;30.82
34658;BME280;20865;43.312;27.152;2022-09-12T07:58:51;99899.96;;;32.73;30.51
34658;BME280;20865;43.312;27.152;2022-09-12T08:01:20;99902.07;;;32.82;30.54
34658;BME280;20865;43.312;27.152;2022-09-12T08:03:53;99902.70;;;32.84;31.04
34658;BME280;20865;43.312;27.152;2022-09-12T08:06:21;99896.25;;;32.98;30.01
34658;BME280;20865;43.312;27.152;2022-09-12T08:08:51;99904.99;;;32.91;29.95
34658;BME280;20865;43.312;27.152;2022-09-12T08:11:20;99906.88;;;32.73;29.84
34658;BME280;20865;43.312;27.152;2022-09-12T08:13:48;99908.12;;;32.70;30.17
34658;BME280;20865;43.312;27.152;2022-09-12T08:16:19;99898.00;;;32.56;29.80
34658;BME280;20865;43.312;27.152;2022-09-12T08:18:48;99898.91;;;32.63;30.13
34658;BME280;20865;43.312;27.152;2022-09-12T08:21:18;99887.20;;;32.72;30.04
34658;BME280;20865;43.312;27.152;2022-09-12T08:23:47;99890.50;;;32.71;30.05
34658;BME280;20865;43.312;27.152;2022-09-12T08:26:15;99889.36;;;32.77;30.28
34658;BME280;20865;43.312;27.152;2022-09-12T08:28:44;99879.47;;;32.89;30.45
34658;BME280;20865;43.312;27.152;2022-09-12T08:31:14;99879.55;;;32.95;30.10
34658;BME280;20865;43.312;27.152;2022-09-12T08:33:42;99873.38;;;33.11;29.72
34658;BME280;20865;43.312;27.152;2022-09-12T08:36:15;99876.41;;;33.23;30.53
34658;BME280;20865;43.312;27.152;2022-09-12T08:38:45;99865.84;;;33.15;29.04
34658;BME280;20865;43.312;27.152;2022-09-12T08:41:25;99862.58;;;33.23;29.55
34658;BME280;20865;43.312;27.152;2022-09-12T08:46:46;99860.30;;;33.15;28.72
34658;BME280;20865;43.312;27.152;2022-09-12T08:49:16;99855.61;;;32.99;29.27
34658;BME280;20865;43.312;27.152;2022-09-12T08:51:42;99851.95;;;33.19;29.56
34658;BME280;20865;43.312;27.152;2022-09-12T08:54:25;99851.45;;;33.27;29.13
34658;BME280;20865;43.312;27.152;2022-09-12T08:56:44;99858.86;;;33.43;28.89
34658;BME280;20865;43.312;27.152;2022-09-12T08:59:13;99852.66;;;33.35;29.11
34658;BME280;20865;43.312;27.152;2022-09-12T09:01:42;99845.44;;;33.51;29.37
34658;BME280;20865;43.312;27.152;2022-09-12T09:09:47;99836.69;;;33.37;28.97
34658;BME280;20865;43.312;27.152;2022-09-12T09:12:16;99839.80;;;33.38;29.21
34658;BME280;20865;43.312;27.152;2022-09-12T09:14:54;99825.52;;;33.34;28.70
34658;BME280;20865;43.312;27.152;2022-09-12T09:17:22;99824.13;;;33.34;28.48
34658;BME280;20865;43.312;27.152;2022-09-12T09:20:00;99822.14;;;33.22;28.50
34658;BME280;20865;43.312;27.152;2022-09-12T09:22:31;99826.56;;;33.09;28.31
34658;BME280;20865;43.312;27.152;2022-09-12T09:25:00;99818.98;;;33.07;28.73
34658;BME280;20865;43.312;27.152;2022-09-12T09:27:33;99827.64;;;33.15;29.00
34658;BME280;20865;43.312;27.152;2022-09-12T09:30:02;99831.66;;;33.12;28.47
34658;BME280;20865;43.312;27.152;2022-09-12T09:32:33;99821.57;;;33.15;28.35
34658;BME280;20865;43.312;27.152;2022-09-12T09:35:21;99822.09;;;33.32;28.00
34658;BME280;20865;43.312;27.152;2022-09-12T09:37:52;99816.83;;;33.20;28.09
34658;BME280;20865;43.312;27.152;2022-09-12T09:43:20;99823.83;;;33.40;28.93
34658;BME280;20865;43.312;27.152;2022-09-12T09:45:52;99812.41;;;33.32;28.13
34658;BME280;20865;43.312;27.152;2022-09-12T09:48:23;99804.55;;;33.36;28.46
34658;BME280;20865;43.312;27.152;2022-09-12T09:50:52;99808.60;;;33.40;28.00
34658;BME280;20865;43.312;27.152;2022-09-12T09:55:51;99812.44;;;33.39;27.41
34658;BME280;20865;43.312;27.152;2022-09-12T09:58:35;99805.42;;;33.43;27.39
34658;BME280;20865;43.312;27.152;2022-09-12T10:01:03;99802.19;;;33.33;27.51
34658;BME280;20865;43.312;27.152;2022-09-12T10:03:36;99803.80;;;33.14;27.93
34658;BME280;20865;43.312;27.152;2022-09-12T10:06:07;99811.78;;;33.37;27.16
34658;BME280;20865;43.312;27.152;2022-09-12T10:08:36;99805.83;;;33.57;27.78
34658;BME280;20865;43.312;27.152;2022-09-12T10:11:19;99806.29;;;33.67;27.36
34658;BME280;20865;43.312;27.152;2022-09-12T10:13:40;99799.09;;;33.80;26.36
34658;BME280;20865;43.312;27.152;2022-09-12T10:16:17;99808.27;;;33.87;26.02
34658;BME280;20865;43.312;27.152;2022-09-12T10:18:45;99807.62;;;33.85;26.03
34658;BME280;20865;43.312;27.152;2022-09-12T10:21:15;99815.75;;;33.93;26.25
34658;BME280;20865;43.312;27.152;2022-09-12T10:23:45;99807.91;;;34.10;25.44
34658;BME280;20865;43.312;27.152;2022-09-12T10:26:15;99804.73;;;34.20;26.07
34658;BME280;20865;43.312;27.152;2022-09-12T10:28:52;99807.19;;;34.25;25.91
34658;BME280;20865;43.312;27.152;2022-09-12T10:31:26;99810.08;;;34.28;24.98
34658;BME280;20865;43.312;27.152;2022-09-12T10:33:57;99811.47;;;34.28;25.59
34658;BME280;20865;43.312;27.152;2022-09-12T10:36:33;99803.68;;;34.21;25.07
34658;BME280;20865;43.312;27.152;2022-09-12T10:38:58;99809.84;;;34.16;24.52
34658;BME280;20865;43.312;27.152;2022-09-12T10:41:38;99804.41;;;34.19;24.45
34658;BME280;20865;43.312;27.152;2022-09-12T10:44:23;99805.16;;;34.23;24.59
34658;BME280;20865;43.312;27.152;2022-09-12T10:46:37;99803.99;;;34.22;24.80
34658;BME280;20865;43.312;27.152;2022-09-12T10:49:19;99803.45;;;34.22;25.38
34658;BME280;20865;43.312;27.152;2022-09-12T10:51:42;99805.48;;;34.11;24.51
34658;BME280;20865;43.312;27.152;2022-09-12T10:54:10;99819.23;;;33.84;24.67
34658;BME280;20865;43.312;27.152;2022-09-12T10:57:26;99814.16;;;33.64;25.18
34658;BME280;20865;43.312;27.152;2022-09-12T11:05:21;99811.78;;;33.48;25.45
34658;BME280;20865;43.312;27.152;2022-09-12T11:07:51;99820.13;;;33.67;26.17
34658;BME280;20865;43.312;27.152;2022-09-12T11:13:25;99809.02;;;33.48;26.00
34658;BME280;20865;43.312;27.152;2022-09-12T11:21:14;99805.63;;;33.17;26.36
34658;BME280;20865;43.312;27.152;2022-09-12T11:23:56;99803.05;;;33.09;25.80
34658;BME280;20865;43.312;27.152;2022-09-12T11:26:59;99795.70;;;32.95;26.69
34658;BME280;20865;43.312;27.152;2022-09-12T11:35:11;99802.66;;;32.73;26.60
34658;BME280;20865;43.312;27.152;2022-09-12T11:37:42;99794.45;;;32.69;26.68
34658;BME280;20865;43.312;27.152;2022-09-12T11:40:24;99803.99;;;32.67;26.86
34658;BME280;20865;43.312;27.152;2022-09-12T11:43:00;99792.44;;;32.67;26.68
34658;BME280;20865;43.312;27.152;2022-09-12T11:45:28;99791.81;;;32.72;26.74
34658;BME280;20865;43.312;27.152;2022-09-12T11:48:00;99793.20;;;32.89;26.93
34658;BME280;20865;43.312;27.152;2022-09-12T11:50:30;99792.88;;;32.99;26.37
34658;BME280;20865;43.312;27.152;2022-09-12T11:53:10;99792.05;;;32.94;26.75
34658;BME280;20865;43.312;27.152;2022-09-12T11:55:43;99799.05;;;32.90;26.37
34658;BME280;20865;43.312;27.152;2022-09-12T11:58:07;99792.55;;;32.87;26.78
34658;BME280;20865;43.312;27.152;2022-09-12T12:00:44;99797.63;;;32.84;27.71
34658;BME280;20865;43.312;27.152;2022-09-12T12:06:04;99791.41;;;33.03;25.85
34658;BME280;20865;43.312;27.152;2022-09-12T12:08:31;99785.57;;;32.63;26.30
34658;BME280;20865;43.312;27.152;2022-09-12T12:11:05;99779.73;;;32.62;26.68
34658;BME280;20865;43.312;27.152;2022-09-12T12:21:47;99791.72;;;32.59;26.60
34658;BME280;20865;43.312;27.152;2022-09-12T12:27:03;99781.75;;;32.47;26.67
34658;BME280;20865;43.312;27.152;2022-09-12T12:29:46;99774.71;;;32.44;26.39
34658;BME280;20865;43.312;27.152;2022-09-12T12:34:45;99777.47;;;32.44;27.00
34658;BME280;20865;43.312;27.152;2022-09-12T12:39:56;99773.56;;;32.49;26.75
34658;BME280;20865;43.312;27.152;2022-09-12T12:47:46;99772.14;;;32.54;26.17
34658;BME280;20865;43.312;27.152;2022-09-12T12:50:26;99771.87;;;32.48;26.46
34658;BME280;20865;43.312;27.152;2022-09-12T12:58:32;99760.47;;;32.58;26.68
34658;BME280;20865;43.312;27.152;2022-09-12T13:01:13;99762.61;;;32.63;26.07
34658;BME280;20865;43.312;27.152;2022-09-12T13:03:59;99769.97;;;32.66;26.15
34658;BME280;20865;43.312;27.152;2022-09-12T13:06:46;99770.23;;;32.71;25.49
34658;BME280;20865;43.312;27.152;2022-09-12T13:09:32;99764.63;;;32.76;24.72
34658;BME280;20865;43.312;27.152;2022-09-12T13:14:48;99763.23;;;32.93;26.29
34658;BME280;20865;43.312;27.152;2022-09-12T13:20:05;99763.67;;;32.62;26.28
34658;BME280;20865;43.312;27.152;2022-09-12T13:22:23;99762.70;;;32.76;25.96
34658;BME280;20865;43.312;27.152;2022-09-12T13:24:51;99767.75;;;32.83;25.81
34658;BME280;20865;43.312;27.152;2022-09-12T13:27:23;99768.41;;;32.85;26.22
34658;BME280;20865;43.312;27.152;2022-09-12T13:30:11;99754.01;;;32.79;25.92
34658;BME280;20865;43.312;27.152;2022-09-12T13:32:37;99756.69;;;32.83;26.02
34658;BME280;20865;43.312;27.152;2022-09-12T13:35:10;99756.32;;;32.93;24.82
34658;BME280;20865;43.312;27.152;2022-09-12T13:43:17;99753.98;;;33.07;24.77
34658;BME280;20865;43.312;27.152;2022-09-12T13:45:46;99756.52;;;33.02;25.28
34658;BME280;20865;43.312;27.152;2022-09-12T13:48:20;99758.77;;;32.92;24.90
34658;BME280;20865;43.312;27.152;2022-09-12T13:50:51;99764.45;;;32.84;24.70
34658;BME280;20865;43.312;27.152;2022-09-12T13:53:21;99764.02;;;32.52;24.76
34658;BME280;20865;43.312;27.152;2022-09-12T13:55:57;99764.55;;;32.52;24.42
34658;BME280;20865;43.312;27.152;2022-09-12T13:58:23;99765.27;;;32.39;24.45
34658;BME280;20865;43.312;27.152;2022-09-12T14:01:06;99762.94;;;32.46;24.94
34658;BME280;20865;43.312;27.152;2022-09-12T14:03:41;99760.28;;;32.49;25.13
34658;BME280;20865;43.312;27.152;2022-09-12T14:06:27;99752.07;;;32.45;24.50
34658;BME280;20865;43.312;27.152;2022-09-12T14:08:55;99756.27;;;32.52;24.32
34658;BME280;20865;43.312;27.152;2022-09-12T14:11:26;99758.81;;;32.53;24.31
34658;BME280;20865;43.312;27.152;2022-09-12T14:13:54;99761.74;;;32.45;24.69
34658;BME280;20865;43.312;27.152;2022-09-12T14:16:23;99759.75;;;32.49;24.70
34658;BME280;20865;43.312;27.152;2022-09-12T14:18:52;99757.99;;;32.42;24.42
34658;BME280;20865;43.312;27.152;2022-09-12T14:23:56;99760.28;;;32.49;24.93
34658;BME280;20865;43.312;27.152;2022-09-12T14:26:27;99754.52;;;32.44;25.21
34658;BME280;20865;43.312;27.152;2022-09-12T14:28:57;99755.90;;;32.44;24.84
34658;BME280;20865;43.312;27.152;2022-09-12T14:31:34;99757.91;;;32.46;24.56
34658;BME280;20865;43.312;27.152;2022-09-12T14:36:45;99757.87;;;32.67;24.47
34658;BME280;20865;43.312;27.152;2022-09-12T14:39:19;99751.14;;;32.38;25.51
34658;BME280;20865;43.312;27.152;2022-09-12T14:41:48;99742.31;;;32.38;25.64
34658;BME280;20865;43.312;27.152;2022-09-12T14:44:23;99750.73;;;32.41;25.29
34658;BME280;20865;43.312;27.152;2022-09-12T14:46:52;99746.67;;;32.37;25.21
34658;BME280;20865;43.312;27.152;2022-09-12T14:49:31;99747.39;;;32.35;25.17
34658;BME280;20865;43.312;27.152;2022-09-12T14:52:04;99745.63;;;32.27;25.17
34658;BME280;20865;43.312;27.152;2022-09-12T14:54:35;99743.42;;;32.16;24.73
34658;BME280;20865;43.312;27.152;2022-09-12T14:59:45;99743.95;;;31.94;25.17
34658;BME280;20865;43.312;27.152;2022-09-12T15:04:52;99749.80;;;31.73;26.09
34658;BME280;20865;43.312;27.152;2022-09-12T15:07:38;99747.88;;;31.63;26.44
34658;BME280;20865;43.312;27.152;2022-09-12T15:12:42;99746.73;;;31.47;26.80
34658;BME280;20865;43.312;27.152;2022-09-12T15:15:15;99750.08;;;31.42;26.83
34658;BME280;20865;43.312;27.152;2022-09-12T15:17:43;99749.27;;;31.38;27.11
34658;BME280;20865;43.312;27.152;2022-09-12T15:20:12;99743.95;;;31.36;27.28
34658;BME280;20865;43.312;27.152;2022-09-12T15:22:40;99745.75;;;31.29;27.31
34658;BME280;20865;43.312;27.152;2022-09-12T15:25:10;99739.88;;;31.32;27.43
34658;BME280;20865;43.312;27.152;2022-09-12T15:27:38;99735.53;;;31.34;27.59
34658;BME280;20865;43.312;27.152;2022-09-12T15:30:07;99745.08;;;31.27;27.68
34658;BME280;20865;43.312;27.152;2022-09-12T15:32:36;99738.53;;;31.28;27.69
34658;BME280;20865;43.312;27.152;2022-09-12T15:35:08;99736.09;;;31.29;27.93
34658;BME280;20865;43.312;27.152;2022-09-12T15:37:32;99742.67;;;31.28;28.05
34658;BME280;20865;43.312;27.152;2022-09-12T15:40:00;99737.65;;;31.27;28.06
34658;BME280;20865;43.312;27.152;2022-09-12T15:42:29;99737.01;;;31.25;28.29
34658;BME280;20865;43.312;27.152;2022-09-12T15:44:57;99737.39;;;31.22;28.54
34658;BME280;20865;43.312;27.152;2022-09-12T15:47:25;99742.20;;;31.24;28.43
34658;BME280;20865;43.312;27.152;2022-09-12T15:49:53;99749.95;;;31.25;28.58
34658;BME280;20865;43.312;27.152;2022-09-12T15:52:20;99752.88;;;31.23;28.67
34658;BME280;20865;43.312;27.152;2022-09-12T15:54:48;99748.95;;;31.22;28.66
34658;BME280;20865;43.312;27.152;2022-09-12T15:57:15;99754.15;;;31.21;28.92
34658;BME280;20865;43.312;27.152;2022-09-12T15:59:43;99748.13;;;31.17;29.15
34658;BME280;20865;43.312;27.152;2022-09-12T16:02:11;99750.77;;;31.15;29.25
34658;BME280;20865;43.312;27.152;2022-09-12T16:04:38;99750.63;;;31.12;29.09
34658;BME280;20865;43.312;27.152;2022-09-12T16:07:06;99753.30;;;31.05;29.15
34658;BME280;20865;43.312;27.152;2022-09-12T16:09:34;99753.88;;;31.01;28.72
34658;BME280;20865;43.312;27.152;2022-09-12T16:12:02;99762.91;;;30.95;28.86
34658;BME280;20865;43.312;27.152;2022-09-12T16:14:30;99778.61;;;30.79;28.77
34658;BME280;20865;43.312;27.152;2022-09-12T16:16:58;99798.98;;;30.55;28.62
34658;BME280;20865;43.312;27.152;2022-09-12T16:19:25;99794.42;;;30.44;28.92
34658;BME280;20865;43.312;27.152;2022-09-12T16:21:53;99787.60;;;30.17;29.21
34658;BME280;20865;43.312;27.152;2022-09-12T16:24:21;99792.73;;;29.97;29.58
34658;BME280;20865;43.312;27.152;2022-09-12T16:26:49;99795.98;;;30.00;29.56
34658;BME280;20865;43.312;27.152;2022-09-12T16:29:16;99794.48;;;29.94;29.44
34658;BME280;20865;43.312;27.152;2022-09-12T16:31:44;99794.45;;;29.75;29.26
34658;BME280;20865;43.312;27.152;2022-09-12T16:34:11;99781.55;;;29.75;29.08
34658;BME280;20865;43.312;27.152;2022-09-12T16:36:39;99785.91;;;29.65;28.68
34658;BME280;20865;43.312;27.152;2022-09-12T16:39:06;99788.98;;;29.66;29.36
34658;BME280;20865;43.312;27.152;2022-09-12T16:41:34;99790.22;;;29.56;30.72
34658;BME280;20865;43.312;27.152;2022-09-12T16:44:02;99793.69;;;29.54;31.48
34658;BME280;20865;43.312;27.152;2022-09-12T16:46:29;99787.20;;;29.42;32.25
34658;BME280;20865;43.312;27.152;2022-09-12T16:48:58;99784.45;;;29.42;32.11
34658;BME280;20865;43.312;27.152;2022-09-12T16:51:29;99782.58;;;29.43;31.90
34658;BME280;20865;43.312;27.152;2022-09-12T16:53:56;99782.91;;;29.44;31.74
34658;BME280;20865;43.312;27.152;2022-09-12T16:56:24;99777.57;;;29.42;30.93
34658;BME280;20865;43.312;27.152;2022-09-12T16:58:52;99778.95;;;29.42;30.28
34658;BME280;20865;43.312;27.152;2022-09-12T17:01:22;99788.73;;;29.45;30.64
34658;BME280;20865;43.312;27.152;2022-09-12T17:03:55;99792.18;;;29.47;31.05
34658;BME280;20865;43.312;27.152;2022-09-12T17:06:23;99797.16;;;29.48;31.34
34658;BME280;20865;43.312;27.152;2022-09-12T17:08:53;99792.67;;;29.51;31.15
34658;BME280;20865;43.312;27.152;2022-09-12T17:11:27;99804.53;;;29.51;31.45
34658;BME280;20865;43.312;27.152;2022-09-12T17:13:59;99798.34;;;29.49;31.29
34658;BME280;20865;43.312;27.152;2022-09-12T17:16:28;99798.20;;;29.47;31.67
34658;BME280;20865;43.312;27.152;2022-09-12T17:18:56;99800.77;;;29.48;31.54
34658;BME280;20865;43.312;27.152;2022-09-12T17:21:24;99801.97;;;29.46;31.47
34658;BME280;20865;43.312;27.152;2022-09-12T17:23:51;99804.42;;;29.40;31.19
34658;BME280;20865;43.312;27.152;2022-09-12T17:26:19;99803.37;;;29.41;31.06
34658;BME280;20865;43.312;27.152;2022-09-12T17:28:47;99801.17;;;29.37;31.08
34658;BME280;20865;43.312;27.152;2022-09-12T17:31:15;99807.86;;;29.38;30.94
34658;BME280;20865;43.312;27.152;2022-09-12T17:33:42;99808.92;;;29.33;31.06
34658;BME280;20865;43.312;27.152;2022-09-12T17:36:13;99814.76;;;29.34;31.08
34658;BME280;20865;43.312;27.152;2022-09-12T17:38:43;99819.92;;;29.33;31.06
34658;BME280;20865;43.312;27.152;2022-09-12T17:41:16;99825.42;;;29.33;31.19
34658;BME280;20865;43.312;27.152;2022-09-12T17:43:49;99835.41;;;29.30;31.39
34658;BME280;20865;43.312;27.152;2022-09-12T17:46:18;99866.18;;;29.30;31.75
34658;BME280;20865;43.312;27.152;2022-09-12T17:48:51;99866.38;;;29.20;31.97
34658;BME280;20865;43.312;27.152;2022-09-12T17:51:19;99871.19;;;29.18;32.54
34658;BME280;20865;43.312;27.152;2022-09-12T17:53:47;99868.83;;;29.03;33.30
34658;BME280;20865;43.312;27.152;2022-09-12T17:56:15;99870.87;;;28.96;33.91
34658;BME280;20865;43.312;27.152;2022-09-12T17:58:42;99873.83;;;28.99;33.96
34658;BME280;20865;43.312;27.152;2022-09-12T18:01:12;99871.06;;;28.95;34.21
34658;BME280;20865;43.312;27.152;2022-09-12T18:03:59;99879.30;;;28.95;34.51
34658;BME280;20865;43.312;27.152;2022-09-12T18:06:28;99877.73;;;28.96;34.64
34658;BME280;20865;43.312;27.152;2022-09-12T18:09:04;99872.95;;;28.94;34.80
34658;BME280;20865;43.312;27.152;2022-09-12T18:11:33;99873.63;;;28.92;35.12
34658;BME280;20865;43.312;27.152;2022-09-12T18:14:01;99871.91;;;28.95;35.52
34658;BME280;20865;43.312;27.152;2022-09-12T18:16:28;99870.87;;;28.96;35.75
34658;BME280;20865;43.312;27.152;2022-09-12T18:19:00;99873.63;;;28.92;36.17
34658;BME280;20865;43.312;27.152;2022-09-12T18:21:28;99881.70;;;28.90;36.48
34658;BME280;20865;43.312;27.152;2022-09-12T18:23:57;99878.45;;;28.86;36.49
34658;BME280;20865;43.312;27.152;2022-09-12T18:26:26;99878.45;;;28.86;36.65
34658;BME280;20865;43.312;27.152;2022-09-12T18:28:54;99887.05;;;28.87;36.74
34658;BME280;20865;43.312;27.152;2022-09-12T18:31:24;99892.55;;;28.87;36.86
34658;BME280;20865;43.312;27.152;2022-09-12T18:33:52;99902.52;;;28.84;37.04
34658;BME280;20865;43.312;27.152;2022-09-12T18:36:21;99893.57;;;28.82;36.82
34658;BME280;20865;43.312;27.152;2022-09-12T18:38:48;99894.44;;;28.79;37.79
34658;BME280;20865;43.312;27.152;2022-09-12T18:41:18;99891.70;;;28.75;38.25
34658;BME280;20865;43.312;27.152;2022-09-12T18:43:47;99895.46;;;28.69;38.52
34658;BME280;20865;43.312;27.152;2022-09-12T18:46:17;99893.58;;;28.62;39.75
34658;BME280;20865;43.312;27.152;2022-09-12T18:48:46;99896.34;;;28.54;40.60
34658;BME280;20865;43.312;27.152;2022-09-12T18:51:19;99899.77;;;28.52;41.23
34658;BME280;20865;43.312;27.152;2022-09-12T18:53:52;99906.30;;;28.46;41.64
34658;BME280;20865;43.312;27.152;2022-09-12T18:56:18;99899.05;;;28.37;41.52
34658;BME280;20865;43.312;27.152;2022-09-12T18:58:49;99901.95;;;28.19;41.99
34658;BME280;20865;43.312;27.152;2022-09-12T19:01:20;99900.05;;;28.16;41.56
34658;BME280;20865;43.312;27.152;2022-09-12T19:03:48;99901.05;;;28.07;42.02
34658;BME280;20865;43.312;27.152;2022-09-12T19:06:18;99905.87;;;28.00;42.02
34658;BME280;20865;43.312;27.152;2022-09-12T19:08:47;99902.22;;;27.88;42.23
34658;BME280;20865;43.312;27.152;2022-09-12T19:11:14;99907.89;;;27.86;42.38
34658;BME280;20865;43.312;27.152;2022-09-12T19:13:44;99912.67;;;27.80;42.77
34658;BME280;20865;43.312;27.152;2022-09-12T19:16:14;99905.95;;;27.78;42.92
34658;BME280;20865;43.312;27.152;2022-09-12T19:18:42;99904.02;;;27.75;42.71